createdAt,value
2018-05-25T00:00:03.138Z,100355.23
2018-05-25T00:02:30.531Z,100355.20
2018-05-25T00:04:57.918Z,100363.16
2018-05-25T00:07:25.318Z,100365.30
2018-05-25T00:09:52.711Z,100372.18
2018-05-25T00:12:20.102Z,100364.50
2018-05-25T00:14:47.498Z,100367.58
2018-05-25T00:17:14.886Z,100361.22
2018-05-25T00:19:42.291Z,100369.45
2018-05-25T00:22:09.668Z,100370.62
2018-05-25T00:24:37.067Z,100369.37
2018-05-25T00:27:04.486Z,100371.80
2018-05-25T00:29:31.878Z,100364.63
2018-05-25T00:31:59.271Z,100367.19
2018-05-25T00:34:26.658Z,100365.11
2018-05-25T00:36:54.043Z,100366.46
2018-05-25T00:39:21.443Z,100368.05
2018-05-25T00:41:48.823Z,100368.56
2018-05-25T00:44:16.215Z,100368.39
2018-05-25T00:46:43.599Z,100372.81
2018-05-25T00:49:11.010Z,100376.75
2018-05-25T00:51:38.399Z,100370.13
2018-05-25T00:54:05.787Z,100369.98
2018-05-25T00:56:33.178Z,100378.06
2018-05-25T00:59:00.595Z,100376.63
2018-05-25T01:01:27.986Z,100375.59
2018-05-25T01:03:55.375Z,100379.43
2018-05-25T01:06:22.778Z,100376.25
2018-05-25T01:08:50.175Z,100379.64
2018-05-25T01:11:17.559Z,100382.00
2018-05-25T01:13:44.954Z,100378.55
2018-05-25T01:16:12.342Z,100380.77
2018-05-25T01:18:39.738Z,100380.07
2018-05-25T01:21:07.124Z,100374.26
2018-05-25T01:23:34.507Z,100371.63
2018-05-25T01:26:01.900Z,100369.06
2018-05-25T01:28:29.282Z,100366.23
2018-05-25T01:30:56.675Z,100367.82
2018-05-25T01:33:24.082Z,100363.91
2018-05-25T01:35:51.474Z,100367.64
2018-05-25T01:38:18.858Z,100362.25
2018-05-25T01:40:46.262Z,100360.86
2018-05-25T01:43:13.646Z,100359.72
2018-05-25T01:45:41.043Z,100351.00
2018-05-25T01:48:08.439Z,100352.53
2018-05-25T01:50:35.822Z,100347.14
2018-05-25T01:53:03.236Z,100337.87
2018-05-25T01:55:30.620Z,100346.23
2018-05-25T01:57:58.008Z,100342.16
2018-05-25T02:00:25.399Z,100345.30
2018-05-25T02:02:52.787Z,100347.72
2018-05-25T02:05:20.182Z,100342.23
2018-05-25T02:07:47.583Z,100343.44
2018-05-25T02:10:15.026Z,100338.73
2018-05-25T02:12:42.398Z,100343.75
2018-05-25T02:15:09.847Z,100344.27
2018-05-25T02:17:37.234Z,100343.99
2018-05-25T02:20:04.626Z,100345.52
2018-05-25T02:22:32.087Z,100338.87
2018-05-25T02:24:59.483Z,100341.67
2018-05-25T02:27:27.213Z,100337.73
2018-05-25T02:29:54.594Z,100336.38
2018-05-25T02:32:21.986Z,100336.48
2018-05-25T02:34:49.370Z,100335.79
2018-05-25T02:37:16.759Z,100339.39
2018-05-25T02:39:44.151Z,100337.48
2018-05-25T02:42:11.539Z,100334.75
2018-05-25T02:44:38.935Z,100336.34
2018-05-25T02:47:06.327Z,100337.65
2018-05-25T02:49:33.719Z,100340.87
2018-05-25T02:52:01.103Z,100346.36
2018-05-25T02:54:28.494Z,100346.14
2018-05-25T02:56:55.889Z,100341.64
2018-05-25T02:59:23.275Z,100343.23
2018-05-25T03:01:50.715Z,100345.13
2018-05-25T03:04:18.086Z,100343.60
2018-05-25T03:06:45.505Z,100344.39
2018-05-25T03:09:12.900Z,100346.67
2018-05-25T03:11:40.298Z,100341.89
2018-05-25T03:14:07.690Z,100342.55
2018-05-25T03:16:35.074Z,100348.30
2018-05-25T03:19:02.486Z,100344.64
2018-05-25T03:21:29.875Z,100344.87
2018-05-25T03:23:57.268Z,100347.52
2018-05-25T03:26:24.669Z,100346.27
2018-05-25T03:28:52.046Z,100350.55
2018-05-25T03:31:19.466Z,100353.75
2018-05-25T03:33:46.855Z,100357.64
2018-05-25T03:36:14.582Z,100358.53
2018-05-25T03:38:41.969Z,100359.37
2018-05-25T03:41:09.361Z,100358.25
2018-05-25T03:43:36.750Z,100360.52
2018-05-25T03:46:04.138Z,100365.36
2018-05-25T03:48:31.535Z,100370.52
2018-05-25T03:50:58.918Z,100365.78
2018-05-25T03:53:26.331Z,100367.54
2018-05-25T03:55:53.718Z,100365.41
2018-05-25T04:01:25.903Z,100363.73
2018-05-25T04:03:53.299Z,100366.66
2018-05-25T04:06:20.694Z,100364.52
2018-05-25T04:08:48.086Z,100358.06
2018-05-25T04:11:15.603Z,100361.42
2018-05-25T04:13:42.985Z,100363.55
2018-05-25T04:16:10.379Z,100366.81
2018-05-25T04:18:37.819Z,100369.77
2018-05-25T04:21:05.219Z,100369.13
2018-05-25T04:23:32.603Z,100371.40
2018-05-25T04:25:59.987Z,100374.15
2018-05-25T04:28:27.387Z,100374.38
2018-05-25T04:30:54.770Z,100373.96
2018-05-25T04:33:22.199Z,100377.22
2018-05-25T04:35:49.582Z,100376.05
2018-05-25T04:38:16.979Z,100377.16
2018-05-25T04:40:44.367Z,100385.95
2018-05-25T04:43:11.812Z,100386.83
2018-05-25T04:45:39.332Z,100390.27
2018-05-25T04:48:06.718Z,100389.80
2018-05-25T04:50:34.111Z,100385.84
2018-05-25T04:53:01.498Z,100392.77
2018-05-25T04:55:28.898Z,100402.94
2018-05-25T04:57:56.286Z,100399.59
2018-05-25T05:00:23.693Z,100401.70
2018-05-25T05:02:51.075Z,100409.56
2018-05-25T05:05:18.462Z,100404.48
2018-05-25T05:07:45.855Z,100401.72
2018-05-25T05:10:13.247Z,100402.45
2018-05-25T05:12:40.651Z,100404.25
2018-05-25T05:15:08.035Z,100410.24
2018-05-25T05:17:35.472Z,100410.24
2018-05-25T05:20:02.855Z,100411.52
2018-05-25T05:22:30.247Z,100402.66
2018-05-25T05:24:57.642Z,100402.59
2018-05-25T05:27:25.050Z,100401.55
2018-05-25T05:29:52.447Z,100393.34
2018-05-25T05:32:19.830Z,100394.06
2018-05-25T05:34:47.614Z,100391.84
2018-05-25T05:37:14.991Z,100393.91
2018-05-25T05:39:42.416Z,100398.30
2018-05-25T05:42:09.803Z,100399.01
2018-05-25T05:44:37.190Z,100400.69
2018-05-25T05:47:04.585Z,100399.91
2018-05-25T05:49:31.979Z,100398.89
2018-05-25T05:51:59.581Z,100390.94
2018-05-25T05:54:26.954Z,100392.47
2018-05-25T05:56:54.349Z,100397.48
2018-05-25T05:59:21.751Z,100403.73
2018-05-25T06:01:49.143Z,100402.95
2018-05-25T06:04:16.563Z,100397.41
2018-05-25T06:06:43.931Z,100405.02
2018-05-25T06:09:11.356Z,100408.41
2018-05-25T06:11:38.743Z,100414.67
2018-05-25T06:14:06.197Z,100416.81
2018-05-25T06:16:33.582Z,100428.18
2018-05-25T06:19:00.978Z,100434.83
2018-05-25T06:21:28.378Z,100434.14
2018-05-25T06:23:55.775Z,100431.45
2018-05-25T06:26:23.167Z,100425.37
2018-05-25T06:28:50.562Z,100427.40
2018-05-25T06:31:17.950Z,100436.22
2018-05-25T06:33:45.347Z,100437.29
2018-05-25T06:36:12.763Z,100439.08
2018-05-25T06:38:40.155Z,100441.92
2018-05-25T06:41:07.559Z,100449.00
2018-05-25T06:43:34.938Z,100444.86
2018-05-25T06:46:02.343Z,100450.30
2018-05-25T06:48:29.727Z,100450.61
2018-05-25T06:50:57.119Z,100446.98
2018-05-25T06:53:24.514Z,100443.61
2018-05-25T06:55:52.010Z,100445.25
2018-05-25T06:58:19.415Z,100450.84
2018-05-25T07:00:46.803Z,100446.95
2018-05-25T07:03:14.191Z,100443.98
2018-05-25T07:05:41.618Z,100446.44
2018-05-25T07:08:08.990Z,100451.84
2018-05-25T07:10:36.387Z,100452.39
2018-05-25T07:13:03.770Z,100455.77
2018-05-25T07:15:31.166Z,100459.02
2018-05-25T07:17:58.554Z,100462.11
2018-05-25T07:20:25.942Z,100461.85
2018-05-25T07:22:53.643Z,100463.44
2018-05-25T07:25:21.031Z,100465.69
2018-05-25T07:27:48.415Z,100463.74
2018-05-25T07:30:15.818Z,100466.28
2018-05-25T07:32:43.263Z,100462.35
2018-05-25T07:35:10.651Z,100467.19
2018-05-25T07:37:38.042Z,100467.94
2018-05-25T07:40:05.442Z,100476.82
2018-05-25T07:42:32.827Z,100477.98
2018-05-25T07:45:00.214Z,100481.02
2018-05-25T07:47:27.615Z,100488.75
2018-05-25T07:49:55.107Z,100489.32
2018-05-25T07:52:22.495Z,100493.23
2018-05-25T07:54:49.902Z,100485.44
2018-05-25T07:57:17.295Z,100488.51
2018-05-25T07:59:44.690Z,100489.08
2018-05-25T08:02:12.074Z,100496.18
2018-05-25T08:04:39.458Z,100495.86
2018-05-25T08:07:07.293Z,100498.93
2018-05-25T08:09:34.689Z,100489.72
2018-05-25T08:12:02.272Z,100489.28
2018-05-25T08:14:29.611Z,100489.44
2018-05-25T08:16:57.002Z,100491.42
2018-05-25T08:19:24.392Z,100494.82
2018-05-25T08:21:51.905Z,100495.73
2018-05-25T08:24:19.350Z,100490.33
2018-05-25T08:26:46.739Z,100494.02
2018-05-25T08:29:14.127Z,100496.11
2018-05-25T08:31:41.523Z,100495.87
2018-05-25T08:34:08.914Z,100491.77
2018-05-25T08:36:36.312Z,100492.25
2018-05-25T08:39:03.702Z,100484.11
2018-05-25T08:41:31.108Z,100484.73
2018-05-25T08:43:58.498Z,100485.89
2018-05-25T08:46:25.882Z,100486.54
2018-05-25T08:48:53.271Z,100490.73
2018-05-25T08:51:20.667Z,100487.92
2018-05-25T08:53:48.067Z,100487.73
2018-05-25T08:56:15.459Z,100493.06
2018-05-25T08:58:42.940Z,100496.20
2018-05-25T09:01:10.335Z,100498.58
2018-05-25T09:03:37.723Z,100497.13
2018-05-25T09:06:05.120Z,100498.95
2018-05-25T09:08:32.512Z,100495.40
2018-05-25T09:10:59.899Z,100496.86
2018-05-25T09:13:27.296Z,100494.41
2018-05-25T09:15:55.117Z,100488.23
2018-05-25T09:18:22.515Z,100485.74
2018-05-25T09:20:49.909Z,100488.58
2018-05-25T09:23:17.298Z,100491.30
2018-05-25T09:25:44.698Z,100490.42
2018-05-25T09:28:12.086Z,100493.81
2018-05-25T09:30:39.479Z,100492.71
2018-05-25T09:33:06.871Z,100490.38
2018-05-25T09:35:34.259Z,100485.64
2018-05-25T09:38:01.650Z,100490.80
2018-05-25T09:40:29.115Z,100488.83
2018-05-25T09:42:56.537Z,100491.27
2018-05-25T09:45:23.922Z,100489.44
2018-05-25T09:47:51.326Z,100486.05
2018-05-25T09:50:18.729Z,100487.47
2018-05-25T09:52:46.111Z,100484.59
2018-05-25T09:55:13.504Z,100489.31
2018-05-25T09:57:52.779Z,100490.63
2018-05-25T10:00:20.179Z,100489.19
2018-05-25T10:02:47.611Z,100494.86
2018-05-25T10:05:14.991Z,100492.95
2018-05-25T10:07:42.402Z,100491.93
2018-05-25T10:10:09.790Z,100494.59
2018-05-25T10:12:37.222Z,100497.50
2018-05-25T10:15:04.615Z,100492.48
2018-05-25T10:17:32.011Z,100497.22
2018-05-25T10:19:59.406Z,100490.27
2018-05-25T10:22:26.795Z,100494.20
2018-05-25T10:24:54.183Z,100487.58
2018-05-25T10:27:21.575Z,100481.18
2018-05-25T10:29:48.980Z,100477.18
2018-05-25T10:32:16.559Z,100481.22
2018-05-25T10:34:44.111Z,100479.22
2018-05-25T10:37:11.507Z,100477.73
2018-05-25T10:39:38.898Z,100472.27
2018-05-25T10:42:06.295Z,100476.70
2018-05-25T10:44:33.686Z,100481.92
2018-05-25T10:47:01.086Z,100476.27
2018-05-25T10:49:28.476Z,100486.27
2018-05-25T10:51:55.911Z,100481.48
2018-05-25T10:54:23.299Z,100484.83
2018-05-25T10:56:50.690Z,100482.89
2018-05-25T10:59:18.090Z,100477.72
2018-05-25T11:01:45.491Z,100477.06
2018-05-25T11:04:12.886Z,100471.48
2018-05-25T11:06:40.295Z,100472.95
2018-05-25T11:09:07.695Z,100469.69
2018-05-25T11:11:35.129Z,100463.66
2018-05-25T11:14:02.507Z,100463.66
2018-05-25T11:16:29.902Z,100461.29
2018-05-25T11:18:57.291Z,100459.02
2018-05-25T11:21:24.684Z,100459.88
2018-05-25T11:23:52.083Z,100457.48
2018-05-25T11:26:19.903Z,100453.08
2018-05-25T11:28:47.290Z,100451.02
2018-05-25T11:31:14.683Z,100456.66
2018-05-25T11:33:42.078Z,100455.67
2018-05-25T11:36:09.463Z,100462.10
2018-05-25T11:38:36.856Z,100454.80
2018-05-25T11:41:04.246Z,100456.40
2018-05-25T11:43:31.636Z,100455.54
2018-05-25T11:45:59.033Z,100452.07
2018-05-25T11:48:26.418Z,100448.73
2018-05-25T11:50:53.807Z,100442.63
2018-05-25T11:53:21.199Z,100437.97
2018-05-25T11:55:48.600Z,100435.09
2018-05-25T11:58:15.987Z,100437.77
2018-05-25T12:00:43.375Z,100434.03
2018-05-25T12:03:10.783Z,100435.20
2018-05-25T12:05:38.167Z,100442.92
2018-05-25T12:08:06.148Z,100441.63
2018-05-25T12:10:33.601Z,100428.75
2018-05-25T12:13:01.003Z,100432.02
2018-05-25T12:15:28.395Z,100431.52
2018-05-25T12:17:55.783Z,100429.28
2018-05-25T12:20:23.199Z,100431.15
2018-05-25T12:22:50.590Z,100431.69
2018-05-25T12:25:17.975Z,100434.32
2018-05-25T12:27:45.368Z,100429.22
2018-05-25T12:30:12.754Z,100437.61
2018-05-25T12:32:40.160Z,100438.45
2018-05-25T12:35:07.555Z,100440.60
2018-05-25T12:37:34.956Z,100436.76
2018-05-25T12:40:02.343Z,100432.36
2018-05-25T12:42:29.735Z,100434.53
2018-05-25T12:45:08.742Z,100428.05
2018-05-25T12:47:36.131Z,100427.08
2018-05-25T12:50:03.535Z,100428.00
2018-05-25T12:52:30.927Z,100425.53
2018-05-25T12:54:58.321Z,100424.13
2018-05-25T12:57:25.712Z,100430.19
2018-05-25T12:59:53.123Z,100431.80
2018-05-25T13:02:20.531Z,100424.60
2018-05-25T13:04:47.922Z,100421.22
2018-05-25T13:07:15.426Z,100426.85
2018-05-25T13:09:42.852Z,100429.20
2018-05-25T13:12:10.235Z,100423.75
2018-05-25T13:14:37.620Z,100426.44
2018-05-25T13:17:05.031Z,100417.97
2018-05-25T13:19:32.413Z,100422.58
2018-05-25T13:21:59.799Z,100420.59
2018-05-25T13:24:27.207Z,100422.11
2018-05-25T13:26:54.598Z,100417.70
2018-05-25T13:29:21.991Z,100417.39
2018-05-25T13:31:49.380Z,100416.95
2018-05-25T13:34:16.786Z,100423.73
2018-05-25T13:36:44.186Z,100414.72
2018-05-25T13:39:11.570Z,100408.81
2018-05-25T13:41:38.966Z,100413.23
2018-05-25T13:44:06.357Z,100407.02
2018-05-25T13:46:33.751Z,100410.89
2018-05-25T13:49:01.134Z,100407.88
2018-05-25T13:51:28.531Z,100411.45
2018-05-25T13:53:55.919Z,100411.27
2018-05-25T13:56:23.311Z,100400.01
2018-05-25T13:58:50.734Z,100412.70
2018-05-25T14:01:18.123Z,100400.25
2018-05-25T14:03:45.519Z,100399.98
2018-05-25T14:06:12.908Z,100395.80
2018-05-25T14:08:40.703Z,100390.61
2018-05-25T14:11:08.092Z,100390.86
2018-05-25T14:13:35.495Z,100394.09
2018-05-25T14:16:02.894Z,100391.00
2018-05-25T14:18:30.283Z,100400.72
2018-05-25T14:20:57.679Z,100402.86
2018-05-25T14:23:25.071Z,100397.13
2018-05-25T14:25:52.471Z,100396.30
2018-05-25T14:28:19.858Z,100396.13
2018-05-25T14:30:47.246Z,100397.61
2018-05-25T14:33:14.638Z,100396.28
2018-05-25T14:35:42.027Z,100398.08
2018-05-25T14:38:09.418Z,100395.58
2018-05-25T14:40:36.803Z,100392.49
2018-05-25T14:43:04.199Z,100395.23
2018-05-25T14:45:31.591Z,100393.63
2018-05-25T14:47:58.990Z,100392.17
2018-05-25T14:50:26.475Z,100393.37
2018-05-25T14:52:53.867Z,100399.52
2018-05-25T14:55:21.266Z,100394.52
2018-05-25T14:57:48.655Z,100400.99
2018-05-25T15:00:16.052Z,100392.38
2018-05-25T15:02:43.447Z,100399.37
2018-05-25T15:05:10.839Z,100400.98
2018-05-25T15:07:38.235Z,100395.84
2018-05-25T15:10:05.627Z,100399.75
2018-05-25T15:12:33.014Z,100394.73
2018-05-25T15:15:00.420Z,100400.42
2018-05-25T15:17:27.805Z,100398.70
2018-05-25T15:19:55.195Z,100399.03
2018-05-25T15:22:22.578Z,100394.27
2018-05-25T15:24:49.966Z,100391.58
2018-05-25T15:27:17.407Z,100386.66
2018-05-25T15:29:44.854Z,100392.63
2018-05-25T15:32:12.252Z,100387.03
2018-05-25T15:34:39.640Z,100384.19
2018-05-25T15:37:07.036Z,100380.25
2018-05-25T15:39:34.424Z,100376.70
2018-05-25T15:42:01.811Z,100371.83
2018-05-25T15:44:29.204Z,100367.56
2018-05-25T15:46:56.590Z,100372.74
2018-05-25T15:49:24.016Z,100373.73
2018-05-25T15:51:51.402Z,100367.88
2018-05-25T15:54:18.793Z,100362.91
2018-05-25T15:56:46.183Z,100365.71
2018-05-25T15:59:13.570Z,100359.52
2018-05-25T16:01:40.967Z,100357.34
2018-05-25T16:04:08.358Z,100362.08
2018-05-25T16:06:35.748Z,100368.05
2018-05-25T16:09:03.135Z,100365.14
2018-05-25T16:11:30.539Z,100362.55
2018-05-25T16:13:57.926Z,100355.36
2018-05-25T16:16:25.328Z,100360.31
2018-05-25T16:18:52.723Z,100356.08
2018-05-25T16:21:20.114Z,100353.28
2018-05-25T16:23:47.538Z,100360.93
2018-05-25T16:26:14.935Z,100362.66
2018-05-25T16:28:42.314Z,100351.29
2018-05-25T16:31:09.731Z,100348.61
2018-05-25T16:33:37.122Z,100341.17
2018-05-25T16:36:04.518Z,100346.95
2018-05-25T16:38:31.907Z,100342.37
2018-05-25T16:40:59.307Z,100337.02
2018-05-25T16:43:26.695Z,100342.73
2018-05-25T16:45:54.092Z,100342.25
2018-05-25T16:48:21.539Z,100341.70
2018-05-25T16:50:48.955Z,100335.63
2018-05-25T16:53:16.383Z,100340.78
2018-05-25T16:55:43.774Z,100337.50
2018-05-25T16:58:11.175Z,100330.07
2018-05-25T17:00:38.567Z,100335.59
2018-05-25T17:03:05.957Z,100332.53
2018-05-25T17:05:33.352Z,100335.63
2018-05-25T17:08:00.746Z,100336.30
2018-05-25T17:10:28.143Z,100329.20
2018-05-25T17:12:55.601Z,100338.17
2018-05-25T17:15:22.935Z,100340.61
2018-05-25T17:17:50.342Z,100337.27
2018-05-25T17:20:17.735Z,100332.97
2018-05-25T17:22:45.132Z,100334.15
2018-05-25T17:25:12.523Z,100338.72
2018-05-25T17:27:39.910Z,100336.52
2018-05-25T17:30:07.303Z,100339.84
2018-05-25T17:32:34.702Z,100342.78
2018-05-25T17:35:02.092Z,100344.04
2018-05-25T17:37:29.480Z,100339.80
2018-05-25T17:39:56.871Z,100344.73
2018-05-25T17:42:24.258Z,100345.06
2018-05-25T17:44:51.654Z,100348.34
2018-05-25T17:47:19.084Z,100345.44
2018-05-25T17:49:46.491Z,100349.12
2018-05-25T17:52:13.881Z,100345.67
2018-05-25T17:54:41.266Z,100354.92
2018-05-25T17:57:08.660Z,100353.85
2018-05-25T17:59:36.083Z,100353.36
2018-05-25T18:02:03.479Z,100356.39
2018-05-25T18:04:30.872Z,100359.13
2018-05-25T18:06:58.277Z,100364.98
2018-05-25T18:09:25.728Z,100363.05
2018-05-25T18:11:53.114Z,100370.16
2018-05-25T18:14:20.519Z,100368.70
2018-05-25T18:16:47.911Z,100368.84
2018-05-25T18:19:15.319Z,100370.75
2018-05-25T18:21:42.709Z,100372.10
2018-05-25T18:24:10.405Z,100367.55
2018-05-25T18:26:37.803Z,100365.86
2018-05-25T18:29:05.183Z,100367.61
2018-05-25T18:31:32.599Z,100379.61
2018-05-25T18:34:00.004Z,100373.60
2018-05-25T18:36:27.400Z,100373.27
2018-05-25T18:38:54.783Z,100370.56
2018-05-25T18:41:22.196Z,100367.16
2018-05-25T18:43:49.630Z,100372.31
2018-05-25T18:46:17.040Z,100373.98
2018-05-25T18:48:44.427Z,100369.69
2018-05-25T18:51:11.817Z,100371.98
2018-05-25T18:53:39.207Z,100370.67
2018-05-25T18:56:06.595Z,100371.98
2018-05-25T18:58:33.994Z,100379.13
2018-05-25T19:01:01.382Z,100380.59
2018-05-25T19:03:28.770Z,100387.53
2018-05-25T19:05:56.160Z,100384.36
2018-05-25T19:08:23.555Z,100383.30
2018-05-25T19:10:50.955Z,100392.14
2018-05-25T19:13:18.343Z,100392.96
2018-05-25T19:15:45.744Z,100388.92
2018-05-25T19:18:13.136Z,100393.38
2018-05-25T19:20:40.532Z,100390.38
2018-05-25T19:23:07.958Z,100403.33
2018-05-25T19:25:35.338Z,100397.58
2018-05-25T19:28:02.787Z,100396.55
2018-05-25T19:30:30.455Z,100399.53
2018-05-25T19:32:58.315Z,100398.96
2018-05-25T19:35:25.801Z,100401.34
2018-05-25T19:37:53.182Z,100408.06
2018-05-25T19:40:20.591Z,100411.53
2018-05-25T19:42:47.979Z,100419.05
2018-05-25T19:45:15.383Z,100422.77
2018-05-25T19:47:42.767Z,100420.12
2018-05-25T19:50:10.212Z,100421.33
2018-05-25T19:52:37.623Z,100422.36
2018-05-25T19:55:05.025Z,100427.52
2018-05-25T19:57:32.467Z,100435.06
2018-05-25T19:59:59.891Z,100431.95
2018-05-25T20:02:27.283Z,100436.58
2018-05-25T20:04:54.672Z,100432.05
2018-05-25T20:07:22.090Z,100437.63
2018-05-25T20:09:49.481Z,100438.79
2018-05-25T20:12:16.866Z,100439.03
2018-05-25T20:14:44.262Z,100441.77
2018-05-25T20:17:11.653Z,100439.54
2018-05-25T20:19:39.046Z,100439.25
2018-05-25T20:22:06.439Z,100435.75
2018-05-25T20:24:33.843Z,100431.79
2018-05-25T20:27:01.235Z,100430.33
2018-05-25T20:29:28.627Z,100427.25
2018-05-25T20:31:56.028Z,100434.05
2018-05-25T20:34:23.422Z,100428.34
2018-05-25T20:36:50.821Z,100431.22
2018-05-25T20:39:18.262Z,100431.26
2018-05-25T20:41:45.671Z,100429.01
2018-05-25T20:44:13.067Z,100428.22
2018-05-25T20:46:40.442Z,100427.55
2018-05-25T20:49:07.838Z,100428.00
2018-05-25T20:51:35.222Z,100430.05
2018-05-25T20:54:02.619Z,100430.23
2018-05-25T20:56:30.006Z,100436.19
2018-05-25T20:58:57.423Z,100431.47
2018-05-25T21:01:24.815Z,100429.20
2018-05-25T21:03:52.290Z,100422.03
2018-05-25T21:06:19.693Z,100427.45
2018-05-25T21:08:47.078Z,100425.30
2018-05-25T21:11:14.479Z,100433.87
2018-05-25T21:13:41.875Z,100435.94
2018-05-25T21:16:09.275Z,100434.84
2018-05-25T21:18:36.671Z,100431.61
2018-05-25T21:21:04.060Z,100428.45
2018-05-25T21:23:31.455Z,100430.49
2018-05-25T21:25:58.855Z,100432.77
2018-05-25T21:28:26.240Z,100441.19
2018-05-25T21:30:53.627Z,100437.83
2018-05-25T21:33:21.378Z,100439.04
2018-05-25T21:35:48.758Z,100439.04
2018-05-25T21:38:16.156Z,100442.69
2018-05-25T21:40:43.541Z,100437.44
2018-05-25T21:43:10.935Z,100441.21
2018-05-25T21:45:38.363Z,100446.25
2018-05-25T21:48:05.748Z,100444.37
2018-05-25T21:50:33.146Z,100448.31
2018-05-25T21:53:00.535Z,100442.84
2018-05-25T21:55:27.924Z,100448.58
2018-05-25T21:57:55.314Z,100453.30
2018-05-25T22:00:22.706Z,100456.16
2018-05-25T22:02:50.118Z,100458.05
2018-05-25T22:05:17.517Z,100464.42
2018-05-25T22:07:44.914Z,100466.61
2018-05-25T22:10:12.311Z,100469.19
2018-05-25T22:12:39.716Z,100467.70
2018-05-25T22:15:07.099Z,100471.52
2018-05-25T22:17:34.488Z,100475.58
2018-05-25T22:20:01.879Z,100474.22
2018-05-25T22:22:29.263Z,100476.64
2018-05-25T22:24:56.670Z,100481.80
2018-05-25T22:27:24.064Z,100472.02
2018-05-25T22:29:51.449Z,100476.64
2018-05-25T22:32:18.843Z,100488.24
2018-05-25T22:34:46.230Z,100488.77
2018-05-25T22:37:13.615Z,100492.30
2018-05-25T22:39:41.004Z,100490.80
2018-05-25T22:42:07.866Z,100490.76
2018-05-25T22:44:46.991Z,100487.25
2018-05-25T22:47:26.235Z,100489.31
2018-05-25T22:50:05.323Z,100494.58
2018-05-25T22:52:37.652Z,100491.45
2018-05-25T22:55:10.558Z,100491.03
2018-05-25T22:57:37.955Z,100493.34
2018-05-25T23:00:05.342Z,100492.55
2018-05-25T23:02:32.736Z,100497.29
2018-05-25T23:05:00.130Z,100502.26
2018-05-25T23:07:27.514Z,100501.19
2018-05-25T23:09:54.935Z,100502.44
2018-05-25T23:12:22.319Z,100503.11
2018-05-25T23:14:49.711Z,100501.36
2018-05-25T23:17:17.104Z,100504.57
2018-05-25T23:19:44.490Z,100508.64
2018-05-25T23:22:11.879Z,100503.08
2018-05-25T23:24:39.350Z,100502.50
2018-05-25T23:27:06.739Z,100505.21
2018-05-25T23:29:34.130Z,100506.95
2018-05-25T23:32:01.515Z,100501.66
2018-05-25T23:34:28.971Z,100501.14
2018-05-25T23:36:56.355Z,100499.08
2018-05-25T23:39:23.743Z,100500.14
2018-05-25T23:41:51.135Z,100490.41
2018-05-25T23:44:18.514Z,100492.27
2018-05-25T23:46:45.913Z,100494.98
2018-05-25T23:49:13.306Z,100486.02
2018-05-25T23:51:40.702Z,100490.86
2018-05-25T23:54:08.099Z,100484.20
2018-05-25T23:56:35.486Z,100486.25
2018-05-25T23:59:02.936Z,100487.83
